sensor_id;sensor_type;location;lat;lon;timestamp;pressure;altitude;pressure_sealevel;temperature;humidity
10064;BME280;5071;52.360;13.134;2022-12-07T00:02:13;100915.31;;;1.80;97.44
10064;BME280;5071;52.360;13.134;2022-12-07T00:07:15;100914.22;;;1.72;96.20
10064;BME280;5071;52.360;13.134;2022-12-07T00:12:19;100910.50;;;1.62;96.37
10064;BME280;5071;52.360;13.134;2022-12-07T00:17:21;100913.63;;;1.49;95.83
10064;BME280;5071;52.360;13.134;2022-12-07T00:22:23;100901.09;;;1.37;95.26
10064;BME280;5071;52.360;13.134;2022-12-07T00:27:28;100905.16;;;1.27;96.02
10064;BME280;5071;52.360;13.134;2022-12-07T00:32:30;100894.38;;;1.15;95.95
10064;BME280;5071;52.360;13.134;2022-12-07T00:37:32;100889.59;;;1.00;95.77
10064;BME280;5071;52.360;13.134;2022-12-07T00:42:35;100881.59;;;0.94;96.02
10064;BME280;5071;52.360;13.134;2022-12-07T00:47:37;100886.81;;;0.94;96.67
10064;BME280;5071;52.360;13.134;2022-12-07T00:52:40;100888.56;;;0.95;96.93
10064;BME280;5071;52.360;13.134;2022-12-07T00:57:43;100890.34;;;0.96;97.74
10064;BME280;5071;52.360;13.134;2022-12-07T01:02:45;100877.25;;;0.94;97.36
10064;BME280;5071;52.360;13.134;2022-12-07T01:07:47;100872.88;;;0.95;97.96
10064;BME280;5071;52.360;13.134;2022-12-07T01:12:51;100873.44;;;0.83;98.27
10064;BME280;5071;52.360;13.134;2022-12-07T01:17:53;100855.31;;;0.59;98.76
10064;BME280;5071;52.360;13.134;2022-12-07T01:22:55;100859.41;;;0.51;99.43
10064;BME280;5071;52.360;13.134;2022-12-07T01:27:59;100853.00;;;0.40;100.00
10064;BME280;5071;52.360;13.134;2022-12-07T01:33:01;100838.84;;;0.33;100.00
10064;BME280;5071;52.360;13.134;2022-12-07T01:38:03;100830.69;;;0.22;100.00
10064;BME280;5071;52.360;13.134;2022-12-07T01:43:14;100835.03;;;0.22;100.00
10064;BME280;5071;52.360;13.134;2022-12-07T01:48:20;100834.91;;;0.18;100.00
10064;BME280;5071;52.360;13.134;2022-12-07T01:53:25;100827.88;;;0.16;100.00
10064;BME280;5071;52.360;13.134;2022-12-07T01:58:30;100821.84;;;0.18;100.00
10064;BME280;5071;52.360;13.134;2022-12-07T02:03:36;100819.31;;;0.20;100.00
10064;BME280;5071;52.360;13.134;2022-12-07T02:08:40;100812.34;;;0.21;100.00
10064;BME280;5071;52.360;13.134;2022-12-07T02:13:45;100801.97;;;0.22;100.00
10064;BME280;5071;52.360;13.134;2022-12-07T02:18:59;100808.09;;;0.24;100.00
10064;BME280;5071;52.360;13.134;2022-12-07T02:24:31;100808.09;;;0.24;100.00
10064;BME280;5071;52.360;13.134;2022-12-07T02:29:45;100792.38;;;0.21;100.00
10064;BME280;5071;52.360;13.134;2022-12-07T02:34:51;100788.25;;;0.29;100.00
10064;BME280;5071;52.360;13.134;2022-12-07T02:40:00;100776.66;;;0.19;100.00
10064;BME280;5071;52.360;13.134;2022-12-07T02:45:08;100789.34;;;0.36;100.00
10064;BME280;5071;52.360;13.134;2022-12-07T02:50:12;100784.13;;;0.37;100.00
10064;BME280;5071;52.360;13.134;2022-12-07T02:55:17;100764.00;;;0.33;100.00
10064;BME280;5071;52.360;13.134;2022-12-07T03:00:23;100769.28;;;0.35;100.00
10064;BME280;5071;52.360;13.134;2022-12-07T03:05:43;100754.50;;;0.35;100.00
10064;BME280;5071;52.360;13.134;2022-12-07T03:10:53;100738.75;;;0.32;100.00
10064;BME280;5071;52.360;13.134;2022-12-07T03:16:02;100733.53;;;0.32;100.00
10064;BME280;5071;52.360;13.134;2022-12-07T03:21:11;100717.16;;;0.38;100.00
10064;BME280;5071;52.360;13.134;2022-12-07T03:26:18;100721.59;;;0.41;100.00
10064;BME280;5071;52.360;13.134;2022-12-07T03:31:24;100708.66;;;0.45;100.00
10064;BME280;5071;52.360;13.134;2022-12-07T03:36:33;100691.38;;;0.50;100.00
10064;BME280;5071;52.360;13.134;2022-12-07T03:41:38;100688.00;;;0.54;100.00
10064;BME280;5071;52.360;13.134;2022-12-07T03:46:52;100682.16;;;0.63;100.00
10064;BME280;5071;52.360;13.134;2022-12-07T03:52:03;100675.25;;;0.65;100.00
10064;BME280;5071;52.360;13.134;2022-12-07T03:57:08;100674.56;;;0.72;100.00
10064;BME280;5071;52.360;13.134;2022-12-07T04:02:13;100662.31;;;0.70;100.00
10064;BME280;5071;52.360;13.134;2022-12-07T04:07:16;100669.44;;;0.75;100.00
10064;BME280;5071;52.360;13.134;2022-12-07T04:12:18;100662.53;;;0.77;100.00
10064;BME280;5071;52.360;13.134;2022-12-07T04:17:22;100654.78;;;0.82;100.00
10064;BME280;5071;52.360;13.134;2022-12-07T04:22:23;100639.16;;;0.84;100.00
10064;BME280;5071;52.360;13.134;2022-12-07T04:27:25;100633.25;;;0.91;100.00
10064;BME280;5071;52.360;13.134;2022-12-07T04:32:29;100636.00;;;0.97;100.00
10064;BME280;5071;52.360;13.134;2022-12-07T04:37:32;100634.41;;;1.02;100.00
10064;BME280;5071;52.360;13.134;2022-12-07T04:42:34;100627.56;;;1.07;100.00
10064;BME280;5071;52.360;13.134;2022-12-07T04:47:37;100620.69;;;1.12;100.00
10064;BME280;5071;52.360;13.134;2022-12-07T04:52:39;100619.00;;;1.14;100.00
10064;BME280;5071;52.360;13.134;2022-12-07T04:57:42;100615.53;;;1.15;100.00
10064;BME280;5071;52.360;13.134;2022-12-07T05:02:46;100612.19;;;1.21;100.00
10064;BME280;5071;52.360;13.134;2022-12-07T05:07:48;100605.22;;;1.22;100.00
10064;BME280;5071;52.360;13.134;2022-12-07T05:12:50;100602.78;;;1.28;100.00
10064;BME280;5071;52.360;13.134;2022-12-07T05:17:53;100595.03;;;1.32;100.00
10064;BME280;5071;52.360;13.134;2022-12-07T05:22:55;100596.06;;;1.39;100.00
10064;BME280;5071;52.360;13.134;2022-12-07T05:27:57;100584.84;;;1.46;100.00
10064;BME280;5071;52.360;13.134;2022-12-07T05:33:01;100581.53;;;1.53;100.00
10064;BME280;5071;52.360;13.134;2022-12-07T05:38:03;100583.34;;;1.58;100.00
10064;BME280;5071;52.360;13.134;2022-12-07T05:43:05;100572.13;;;1.62;100.00
10064;BME280;5071;52.360;13.134;2022-12-07T05:48:08;100567.81;;;1.64;100.00
10064;BME280;5071;52.360;13.134;2022-12-07T05:53:10;100560.03;;;1.68;100.00
10064;BME280;5071;52.360;13.134;2022-12-07T05:58:12;100558.50;;;1.77;100.00
10064;BME280;5071;52.360;13.134;2022-12-07T06:03:15;100543.66;;;1.77;100.00
10064;BME280;5071;52.360;13.134;2022-12-07T06:08:19;100557.84;;;1.88;100.00
10064;BME280;5071;52.360;13.134;2022-12-07T06:13:21;100543.97;;;1.92;100.00
10064;BME280;5071;52.360;13.134;2022-12-07T06:18:25;100552.66;;;1.91;100.00
10064;BME280;5071;52.360;13.134;2022-12-07T06:23:27;100542.34;;;1.99;100.00
10064;BME280;5071;52.360;13.134;2022-12-07T06:28:28;100540.78;;;2.09;100.00
10064;BME280;5071;52.360;13.134;2022-12-07T06:33:32;100546.16;;;2.17;100.00
10064;BME280;5071;52.360;13.134;2022-12-07T06:38:34;100542.06;;;2.31;100.00
10064;BME280;5071;52.360;13.134;2022-12-07T06:43:36;100541.34;;;2.40;100.00
10064;BME280;5071;52.360;13.134;2022-12-07T06:48:39;100535.25;;;2.41;100.00
10064;BME280;5071;52.360;13.134;2022-12-07T06:53:41;100545.88;;;2.48;100.00
10064;BME280;5071;52.360;13.134;2022-12-07T06:58:43;100532.88;;;2.56;100.00
10064;BME280;5071;52.360;13.134;2022-12-07T07:03:47;100522.34;;;2.53;100.00
10064;BME280;5071;52.360;13.134;2022-12-07T07:08:49;100537.31;;;2.60;100.00
10064;BME280;5071;52.360;13.134;2022-12-07T07:13:51;100537.41;;;2.66;100.00
10064;BME280;5071;52.360;13.134;2022-12-07T07:18:54;100536.47;;;2.61;100.00
10064;BME280;5071;52.360;13.134;2022-12-07T07:23:56;100542.63;;;2.63;100.00
10064;BME280;5071;52.360;13.134;2022-12-07T07:28:58;100542.78;;;2.72;100.00
10064;BME280;5071;52.360;13.134;2022-12-07T07:34:02;100550.63;;;2.72;100.00
10064;BME280;5071;52.360;13.134;2022-12-07T07:39:04;100551.63;;;2.81;100.00
10064;BME280;5071;52.360;13.134;2022-12-07T07:44:06;100549.94;;;2.84;100.00
10064;BME280;5071;52.360;13.134;2022-12-07T07:49:10;100551.81;;;2.91;100.00
10064;BME280;5071;52.360;13.134;2022-12-07T07:54:12;100552.63;;;2.89;100.00
10064;BME280;5071;52.360;13.134;2022-12-07T07:59:15;100542.22;;;2.94;100.00
10064;BME280;5071;52.360;13.134;2022-12-07T08:04:18;100553.69;;;3.02;100.00
10064;BME280;5071;52.360;13.134;2022-12-07T08:09:20;100553.66;;;3.00;100.00
10064;BME280;5071;52.360;13.134;2022-12-07T08:14:22;100563.31;;;3.01;100.00
10064;BME280;5071;52.360;13.134;2022-12-07T08:19:26;100548.50;;;3.03;99.94
10064;BME280;5071;52.360;13.134;2022-12-07T08:24:28;100566.06;;;3.09;98.48
10064;BME280;5071;52.360;13.134;2022-12-07T08:29:30;100566.22;;;3.20;96.32
10064;BME280;5071;52.360;13.134;2022-12-07T08:34:34;100568.75;;;3.14;93.77
10064;BME280;5071;52.360;13.134;2022-12-07T08:39:36;100574.78;;;3.09;91.23
10064;BME280;5071;52.360;13.134;2022-12-07T08:44:39;100582.94;;;3.28;89.21
10064;BME280;5071;52.360;13.134;2022-12-07T08:49:45;100584.88;;;3.41;88.15
10064;BME280;5071;52.360;13.134;2022-12-07T08:54:48;100578.72;;;3.36;88.16
10064;BME280;5071;52.360;13.134;2022-12-07T08:59:51;100583.28;;;3.53;88.28
10064;BME280;5071;52.360;13.134;2022-12-07T09:04:55;100594.69;;;3.55;87.93
10064;BME280;5071;52.360;13.134;2022-12-07T09:09:58;100583.13;;;3.40;87.65
10064;BME280;5071;52.360;13.134;2022-12-07T09:15:01;100597.28;;;3.52;87.56
10064;BME280;5071;52.360;13.134;2022-12-07T09:20:07;100604.47;;;3.65;87.58
10064;BME280;5071;52.360;13.134;2022-12-07T09:25:09;100606.44;;;3.81;87.33
10064;BME280;5071;52.360;13.134;2022-12-07T09:30:12;100608.22;;;3.85;86.87
10064;BME280;5071;52.360;13.134;2022-12-07T09:35:17;100611.53;;;3.70;87.44
10064;BME280;5071;52.360;13.134;2022-12-07T09:40:21;100621.09;;;3.65;86.65
10064;BME280;5071;52.360;13.134;2022-12-07T09:45:26;100616.69;;;3.63;85.61
10064;BME280;5071;52.360;13.134;2022-12-07T09:50:33;100627.59;;;3.31;86.68
10064;BME280;5071;52.360;13.134;2022-12-07T09:55:36;100627.75;;;3.42;87.97
10064;BME280;5071;52.360;13.134;2022-12-07T10:00:39;100630.28;;;3.34;87.68
10064;BME280;5071;52.360;13.134;2022-12-07T10:05:46;100628.59;;;3.41;87.04
10064;BME280;5071;52.360;13.134;2022-12-07T10:10:51;100635.66;;;3.45;87.13
10064;BME280;5071;52.360;13.134;2022-12-07T10:15:54;100638.25;;;3.43;87.93
10064;BME280;5071;52.360;13.134;2022-12-07T10:21:10;100629.00;;;3.68;86.82
10064;BME280;5071;52.360;13.134;2022-12-07T10:26:29;100623.06;;;3.82;85.59
10064;BME280;5071;52.360;13.134;2022-12-07T10:31:31;100626.38;;;3.68;85.25
10064;BME280;5071;52.360;13.134;2022-12-07T10:36:36;100619.03;;;4.10;83.76
10064;BME280;5071;52.360;13.134;2022-12-07T10:41:53;100608.50;;;4.94;78.77
10064;BME280;5071;52.360;13.134;2022-12-07T10:47:13;100613.41;;;4.57;80.44
10064;BME280;5071;52.360;13.134;2022-12-07T10:52:36;100614.09;;;5.40;78.68
10064;BME280;5071;52.360;13.134;2022-12-07T10:57:47;100612.31;;;4.37;81.68
10064;BME280;5071;52.360;13.134;2022-12-07T11:03:05;100607.47;;;3.96;84.34
10064;BME280;5071;52.360;13.134;2022-12-07T11:08:21;100614.97;;;3.65;86.59
10064;BME280;5071;52.360;13.134;2022-12-07T11:13:37;100618.63;;;3.76;86.79
10064;BME280;5071;52.360;13.134;2022-12-07T11:18:52;100594.00;;;3.68;87.54
10064;BME280;5071;52.360;13.134;2022-12-07T11:24:02;100599.28;;;3.71;87.51
10064;BME280;5071;52.360;13.134;2022-12-07T11:29:24;100605.28;;;3.61;87.47
10064;BME280;5071;52.360;13.134;2022-12-07T11:34:37;100588.97;;;3.86;87.17
10064;BME280;5071;52.360;13.134;2022-12-07T11:39:46;100589.22;;;4.06;86.55
10064;BME280;5071;52.360;13.134;2022-12-07T11:44:53;100580.56;;;4.15;86.40
10064;BME280;5071;52.360;13.134;2022-12-07T11:50:03;100574.59;;;4.32;84.97
10064;BME280;5071;52.360;13.134;2022-12-07T11:55:19;100567.56;;;4.29;85.47
10064;BME280;5071;52.360;13.134;2022-12-07T12:00:22;100568.50;;;4.33;84.22
10064;BME280;5071;52.360;13.134;2022-12-07T12:05:25;100565.88;;;4.33;85.10
10064;BME280;5071;52.360;13.134;2022-12-07T12:10:37;100565.00;;;4.34;84.60
10064;BME280;5071;52.360;13.134;2022-12-07T12:15:52;100566.06;;;4.54;83.53
10064;BME280;5071;52.360;13.134;2022-12-07T12:21:02;100567.88;;;4.58;84.03
10064;BME280;5071;52.360;13.134;2022-12-07T12:26:08;100558.19;;;4.56;83.94
10064;BME280;5071;52.360;13.134;2022-12-07T12:31:32;100560.91;;;4.65;83.47
10064;BME280;5071;52.360;13.134;2022-12-07T12:36:45;100557.22;;;4.44;82.74
10064;BME280;5071;52.360;13.134;2022-12-07T12:42:00;100565.00;;;4.32;84.10
10064;BME280;5071;52.360;13.134;2022-12-07T12:47:03;100554.66;;;4.52;84.08
10064;BME280;5071;52.360;13.134;2022-12-07T13:03:31;100543.03;;;4.27;84.28
10064;BME280;5071;52.360;13.134;2022-12-07T13:08:36;100543.84;;;4.21;84.25
10064;BME280;5071;52.360;13.134;2022-12-07T13:13:43;100543.81;;;4.17;84.08
10064;BME280;5071;52.360;13.134;2022-12-07T13:18:46;100543.91;;;4.24;84.56
10064;BME280;5071;52.360;13.134;2022-12-07T13:23:54;100542.00;;;4.11;84.67
10064;BME280;5071;52.360;13.134;2022-12-07T13:29:09;100544.56;;;4.06;84.96
10064;BME280;5071;52.360;13.134;2022-12-07T13:34:31;100529.63;;;4.01;85.61
10064;BME280;5071;52.360;13.134;2022-12-07T13:39:35;100534.84;;;3.98;86.25
10064;BME280;5071;52.360;13.134;2022-12-07T13:44:40;100538.41;;;4.03;86.58
10064;BME280;5071;52.360;13.134;2022-12-07T13:49:49;100548.03;;;4.02;86.66
10064;BME280;5071;52.360;13.134;2022-12-07T13:54:57;100543.66;;;4.00;86.71
10064;BME280;5071;52.360;13.134;2022-12-07T14:00:02;100540.94;;;3.94;87.37
10064;BME280;5071;52.360;13.134;2022-12-07T14:05:10;100548.78;;;3.91;88.17
10064;BME280;5071;52.360;13.134;2022-12-07T14:10:26;100554.81;;;3.82;88.44
10064;BME280;5071;52.360;13.134;2022-12-07T14:15:30;100551.25;;;3.78;87.92
10064;BME280;5071;52.360;13.134;2022-12-07T14:20:36;100549.47;;;3.74;87.86
10064;BME280;5071;52.360;13.134;2022-12-07T14:25:45;100543.19;;;3.63;88.55
10064;BME280;5071;52.360;13.134;2022-12-07T14:30:52;100551.78;;;3.49;88.75
10064;BME280;5071;52.360;13.134;2022-12-07T14:35:56;100554.31;;;3.42;89.02
10064;BME280;5071;52.360;13.134;2022-12-07T14:40:58;100541.84;;;3.27;89.45
10064;BME280;5071;52.360;13.134;2022-12-07T14:46:00;100542.41;;;3.07;90.02
10064;BME280;5071;52.360;13.134;2022-12-07T14:51:04;100529.22;;;3.01;90.32
10064;BME280;5071;52.360;13.134;2022-12-07T14:56:27;100538.72;;;2.93;90.49
10064;BME280;5071;52.360;13.134;2022-12-07T15:01:29;100539.53;;;2.90;91.25
10064;BME280;5071;52.360;13.134;2022-12-07T15:06:33;100543.72;;;2.78;91.86
10064;BME280;5071;52.360;13.134;2022-12-07T15:11:35;100537.59;;;2.77;92.23
10064;BME280;5071;52.360;13.134;2022-12-07T15:16:45;100547.13;;;2.73;92.50
10064;BME280;5071;52.360;13.134;2022-12-07T15:22:09;100546.97;;;2.61;93.23
10064;BME280;5071;52.360;13.134;2022-12-07T15:27:12;100549.56;;;2.61;93.40
10064;BME280;5071;52.360;13.134;2022-12-07T15:32:14;100547.69;;;2.54;93.22
10064;BME280;5071;52.360;13.134;2022-12-07T15:37:18;100549.16;;;2.38;94.09
10064;BME280;5071;52.360;13.134;2022-12-07T15:42:21;100531.59;;;2.31;94.94
10064;BME280;5071;52.360;13.134;2022-12-07T15:47:23;100539.28;;;2.23;94.98
10064;BME280;5071;52.360;13.134;2022-12-07T15:52:27;100549.72;;;2.20;95.23
10064;BME280;5071;52.360;13.134;2022-12-07T15:57:31;100553.19;;;2.19;95.56
10064;BME280;5071;52.360;13.134;2022-12-07T16:02:34;100547.31;;;2.31;94.57
10064;BME280;5071;52.360;13.134;2022-12-07T16:07:42;100536.94;;;2.37;94.26
10064;BME280;5071;52.360;13.134;2022-12-07T16:12:44;100543.06;;;2.39;93.98
10064;BME280;5071;52.360;13.134;2022-12-07T16:17:46;100543.00;;;2.36;93.71
10064;BME280;5071;52.360;13.134;2022-12-07T16:22:52;100542.03;;;2.29;94.18
10064;BME280;5071;52.360;13.134;2022-12-07T16:27:54;100540.34;;;2.33;93.82
10064;BME280;5071;52.360;13.134;2022-12-07T16:32:56;100541.94;;;2.25;93.94
10064;BME280;5071;52.360;13.134;2022-12-07T16:38:04;100544.69;;;2.32;93.32
10064;BME280;5071;52.360;13.134;2022-12-07T16:43:06;100550.53;;;2.16;93.98
10064;BME280;5071;52.360;13.134;2022-12-07T16:48:09;100551.25;;;2.09;94.37
10064;BME280;5071;52.360;13.134;2022-12-07T16:53:13;100552.00;;;2.02;94.69
10064;BME280;5071;52.360;13.134;2022-12-07T16:58:16;100552.03;;;2.03;95.14
10064;BME280;5071;52.360;13.134;2022-12-07T17:03:18;100545.91;;;2.03;95.21
10064;BME280;5071;52.360;13.134;2022-12-07T17:08:23;100548.53;;;2.03;94.96
10064;BME280;5071;52.360;13.134;2022-12-07T17:13:25;100542.53;;;2.10;94.91
10064;BME280;5071;52.360;13.134;2022-12-07T17:18:31;100552.00;;;2.02;94.49
10064;BME280;5071;52.360;13.134;2022-12-07T17:23:35;100546.53;;;1.91;95.08
10064;BME280;5071;52.360;13.134;2022-12-07T17:28:38;100549.00;;;1.83;95.66
10064;BME280;5071;52.360;13.134;2022-12-07T17:33:41;100554.06;;;1.74;96.04
10064;BME280;5071;52.360;13.134;2022-12-07T17:38:45;100553.41;;;1.84;95.78
10064;BME280;5071;52.360;13.134;2022-12-07T17:43:48;100559.47;;;1.83;95.58
10064;BME280;5071;52.360;13.134;2022-12-07T17:48:53;100552.34;;;1.76;95.82
10064;BME280;5071;52.360;13.134;2022-12-07T17:53:56;100554.06;;;1.74;96.48
10064;BME280;5071;52.360;13.134;2022-12-07T17:58:58;100553.81;;;1.62;96.60
10064;BME280;5071;52.360;13.134;2022-12-07T18:04:01;100551.81;;;1.48;96.74
10064;BME280;5071;52.360;13.134;2022-12-07T18:09:05;100556.25;;;1.52;97.37
10064;BME280;5071;52.360;13.134;2022-12-07T18:14:06;100548.41;;;1.52;97.38
10064;BME280;5071;52.360;13.134;2022-12-07T18:19:09;100550.69;;;1.39;97.38
10064;BME280;5071;52.360;13.134;2022-12-07T18:24:13;100562.81;;;1.35;98.11
10064;BME280;5071;52.360;13.134;2022-12-07T18:29:16;100557.59;;;1.35;97.95
10064;BME280;5071;52.360;13.134;2022-12-07T18:34:19;100557.47;;;1.29;98.49
10064;BME280;5071;52.360;13.134;2022-12-07T18:39:22;100557.28;;;1.21;98.89
10064;BME280;5071;52.360;13.134;2022-12-07T18:44:30;100565.22;;;1.26;99.15
10064;BME280;5071;52.360;13.134;2022-12-07T18:49:32;100561.81;;;1.69;99.57
10064;BME280;5071;52.360;13.134;2022-12-07T18:54:36;100560.19;;;1.76;97.76
10064;BME280;5071;52.360;13.134;2022-12-07T18:59:38;100559.66;;;1.92;96.20
10064;BME280;5071;52.360;13.134;2022-12-07T19:04:40;100568.19;;;1.82;95.80
10064;BME280;5071;52.360;13.134;2022-12-07T19:09:44;100559.41;;;1.80;95.62
10064;BME280;5071;52.360;13.134;2022-12-07T19:14:47;100560.16;;;1.74;95.12
10064;BME280;5071;52.360;13.134;2022-12-07T19:19:49;100558.50;;;1.78;94.73
10064;BME280;5071;52.360;13.134;2022-12-07T19:24:53;100555.69;;;1.67;94.98
10064;BME280;5071;52.360;13.134;2022-12-07T19:29:55;100558.38;;;1.72;94.84
10064;BME280;5071;52.360;13.134;2022-12-07T19:34:57;100564.47;;;1.71;94.27
10064;BME280;5071;52.360;13.134;2022-12-07T19:40:01;100560.00;;;1.65;95.18
10064;BME280;5071;52.360;13.134;2022-12-07T19:45:04;100568.81;;;1.70;95.22
10064;BME280;5071;52.360;13.134;2022-12-07T19:50:08;100560.84;;;1.64;94.89
10064;BME280;5071;52.360;13.134;2022-12-07T19:55:12;100559.06;;;1.62;95.12
10064;BME280;5071;52.360;13.134;2022-12-07T20:00:14;100557.19;;;1.58;95.56
10064;BME280;5071;52.360;13.134;2022-12-07T20:05:17;100567.53;;;1.51;95.01
10064;BME280;5071;52.360;13.134;2022-12-07T20:10:20;100565.53;;;1.40;95.17
10064;BME280;5071;52.360;13.134;2022-12-07T20:15:27;100571.41;;;1.28;95.71
10064;BME280;5071;52.360;13.134;2022-12-07T20:20:30;100566.97;;;1.25;97.03
10064;BME280;5071;52.360;13.134;2022-12-07T20:25:35;100560.97;;;1.31;96.83
10064;BME280;5071;52.360;13.134;2022-12-07T20:30:45;100557.38;;;1.24;96.49
10064;BME280;5071;52.360;13.134;2022-12-07T20:35:48;100541.47;;;1.15;96.66
10064;BME280;5071;52.360;13.134;2022-12-07T20:40:57;100548.97;;;1.01;96.95
10064;BME280;5071;52.360;13.134;2022-12-07T20:46:01;100550.53;;;0.93;97.53
10064;BME280;5071;52.360;13.134;2022-12-07T20:51:05;100551.16;;;0.81;97.72
10064;BME280;5071;52.360;13.134;2022-12-07T20:56:16;100563.94;;;0.70;97.75
10064;BME280;5071;52.360;13.134;2022-12-07T21:01:18;100560.19;;;0.59;98.19
10064;BME280;5071;52.360;13.134;2022-12-07T21:06:20;100565.34;;;0.57;99.03
10064;BME280;5071;52.360;13.134;2022-12-07T21:11:24;100559.97;;;0.51;99.07
10064;BME280;5071;52.360;13.134;2022-12-07T21:16:28;100557.91;;;0.38;99.29
10064;BME280;5071;52.360;13.134;2022-12-07T21:21:32;100564.91;;;0.41;99.85
10064;BME280;5071;52.360;13.134;2022-12-07T21:26:36;100566.72;;;0.42;99.80
10064;BME280;5071;52.360;13.134;2022-12-07T21:31:39;100567.44;;;0.37;99.44
10064;BME280;5071;52.360;13.134;2022-12-07T21:36:41;100562.88;;;0.29;99.34
10064;BME280;5071;52.360;13.134;2022-12-07T21:41:44;100560.84;;;0.17;99.31
10064;BME280;5071;52.360;13.134;2022-12-07T21:46:47;100558.75;;;0.05;99.26
10064;BME280;5071;52.360;13.134;2022-12-07T21:51:49;100560.25;;;-0.05;99.72
10064;BME280;5071;52.360;13.134;2022-12-07T21:56:53;100552.91;;;-0.18;100.00
10064;BME280;5071;52.360;13.134;2022-12-07T22:01:54;100564.81;;;-0.28;99.97
10064;BME280;5071;52.360;13.134;2022-12-07T22:06:56;100573.03;;;-0.44;100.00
10064;BME280;5071;52.360;13.134;2022-12-07T22:12:00;100572.28;;;-0.40;100.00
10064;BME280;5071;52.360;13.134;2022-12-07T22:17:02;100571.94;;;-0.52;100.00
10064;BME280;5071;52.360;13.134;2022-12-07T22:22:04;100571.03;;;-0.53;100.00
10064;BME280;5071;52.360;13.134;2022-12-07T22:27:08;100568.31;;;-0.57;100.00
10064;BME280;5071;52.360;13.134;2022-12-07T22:32:09;100557.00;;;-0.58;100.00
10064;BME280;5071;52.360;13.134;2022-12-07T22:37:32;100560.97;;;-0.71;100.00
10064;BME280;5071;52.360;13.134;2022-12-07T22:42:36;100563.69;;;-0.66;100.00
10064;BME280;5071;52.360;13.134;2022-12-07T22:47:38;100564.06;;;-0.54;100.00
10064;BME280;5071;52.360;13.134;2022-12-07T22:52:40;100554.28;;;-0.61;100.00
10064;BME280;5071;52.360;13.134;2022-12-07T22:57:44;100558.75;;;-0.57;100.00
10064;BME280;5071;52.360;13.134;2022-12-07T23:02:46;100551.31;;;-0.45;100.00
10064;BME280;5071;52.360;13.134;2022-12-07T23:07:49;100551.56;;;-0.35;100.00
10064;BME280;5071;52.360;13.134;2022-12-07T23:12:52;100545.59;;;-0.31;100.00
10064;BME280;5071;52.360;13.134;2022-12-07T23:17:54;100544.63;;;-0.35;100.00
10064;BME280;5071;52.360;13.134;2022-12-07T23:22:56;100542.41;;;-0.51;100.00
10064;BME280;5071;52.360;13.134;2022-12-07T23:27:59;100542.22;;;-0.57;100.00
10064;BME280;5071;52.360;13.134;2022-12-07T23:33:01;100545.66;;;-0.60;100.00
10064;BME280;5071;52.360;13.134;2022-12-07T23:38:03;100526.31;;;-0.67;100.00
10064;BME280;5071;52.360;13.134;2022-12-07T23:43:06;100512.78;;;-0.84;100.00
10064;BME280;5071;52.360;13.134;2022-12-07T23:48:09;100519.06;;;-0.77;100.00
10064;BME280;5071;52.360;13.134;2022-12-07T23:53:11;100510.84;;;-0.61;100.00
10064;BME280;5071;52.360;13.134;2022-12-07T23:58:14;100510.16;;;-0.55;100.00
